Time;durP1;ratioP1;P1;durP2;ratioP2;P2;SDS_P1;SDS_P2;PMS_P1;PMS_P2;Temp;Humidity;BMP_temperature;BMP_pressure;BME280_temperature;BME280_humidity;BME280_pressure;Samples;Min_cycle;Max_cycle;Signal;HPM_P1;HPM_P2
2023/03/10 00:01:22;;;;;;;1.47;1.37;;;18.20;38.70;;;;;;4996553;28;20515;-69
2023/03/10 00:03:49;;;;;;;1.50;1.40;;;18.20;38.80;;;;;;4997265;28;20928;-69
2023/03/10 00:06:18;;;;;;;1.30;1.20;;;18.20;38.70;;;;;;4997762;28;20486;-69
2023/03/10 00:08:44;;;;;;;1.77;1.67;;;18.20;38.80;;;;;;4996891;28;20479;-69
2023/03/10 00:11:09;;;;;;;1.17;1.07;;;18.20;38.80;;;;;;4995514;28;20598;-69
2023/03/10 00:13:35;;;;;;;1.40;1.30;;;18.10;38.70;;;;;;4992695;28;20687;-68
2023/03/10 00:16:01;;;;;;;1.30;1.20;;;18.10;38.70;;;;;;4991262;28;20227;-69
2023/03/10 00:18:26;;;;;;;1.17;1.03;;;18.20;38.70;;;;;;4988426;28;20266;-69
2023/03/10 00:20:53;;;;;;;1.20;1.10;;;18.20;38.80;;;;;;4990243;28;20738;-69
2023/03/10 00:23:20;;;;;;;1.23;1.13;;;18.20;38.80;;;;;;4989783;28;21364;-69
2023/03/10 00:25:56;;;;;;;1.20;1.10;;;18.20;38.80;;;;;;4986565;28;20453;-69
2023/03/10 00:28:22;;;;;;;1.37;1.27;;;18.20;38.70;;;;;;4999388;28;20457;-69
2023/03/10 00:31:06;;;;;;;1.23;1.13;;;18.20;38.80;;;;;;4996173;28;20427;-68
2023/03/10 00:33:33;;;;;;;1.50;1.20;;;18.20;38.70;;;;;;4990729;28;20511;-69
2023/03/10 00:36:11;;;;;;;2.03;1.50;;;18.20;38.80;;;;;;4992323;28;20447;-69
2023/03/10 00:38:37;;;;;;;1.90;1.20;;;18.20;38.80;;;;;;4991684;28;20553;-69
2023/03/10 00:41:05;;;;;;;1.30;1.20;;;18.20;38.80;;;;;;4995442;28;20474;-69
2023/03/10 00:43:31;;;;;;;1.40;1.30;;;18.20;38.80;;;;;;4995154;28;20449;-69
2023/03/10 00:45:57;;;;;;;1.30;1.20;;;18.20;38.80;;;;;;4988786;28;20458;-69
2023/03/10 00:48:23;;;;;;;1.40;1.30;;;18.20;38.80;;;;;;4989535;28;20219;-69
2023/03/10 00:50:49;;;;;;;1.20;1.10;;;18.20;38.80;;;;;;4998204;28;20315;-69
2023/03/10 00:53:15;;;;;;;1.10;1.00;;;18.20;38.80;;;;;;4986900;28;20224;-69
2023/03/10 00:55:40;;;;;;;1.30;1.20;;;18.10;38.80;;;;;;4990823;28;20969;-69
2023/03/10 00:58:06;;;;;;;1.40;1.00;;;18.10;38.80;;;;;;4995708;28;20844;-69
2023/03/10 01:00:32;;;;;;;1.13;1.03;;;18.10;38.80;;;;;;4994558;28;20301;-69
2023/03/10 01:02:58;;;;;;;1.33;1.23;;;18.10;38.80;;;;;;4996639;28;20258;-69
2023/03/10 01:05:23;;;;;;;1.23;1.00;;;18.20;38.90;;;;;;5002644;28;20251;-69
2023/03/10 01:07:49;;;;;;;1.77;1.10;;;18.10;38.80;;;;;;5002658;28;20234;-69
2023/03/10 01:10:14;;;;;;;1.20;1.10;;;18.10;38.80;;;;;;4984262;28;20689;-69
2023/03/10 01:12:40;;;;;;;0.97;0.93;;;18.10;38.80;;;;;;5001835;28;20220;-69
2023/03/10 01:15:06;;;;;;;1.40;1.30;;;18.10;38.80;;;;;;4999799;28;20219;-69
2023/03/10 01:17:32;;;;;;;1.20;1.10;;;18.10;38.90;;;;;;4998427;28;20237;-69
2023/03/10 01:19:57;;;;;;;1.87;1.10;;;18.10;38.90;;;;;;4993861;28;20452;-69
2023/03/10 01:22:23;;;;;;;1.33;1.23;;;18.10;38.90;;;;;;4989568;28;20234;-69
2023/03/10 01:24:49;;;;;;;1.03;0.93;;;18.10;38.90;;;;;;4999280;28;20227;-69
2023/03/10 01:27:14;;;;;;;1.27;1.17;;;18.10;38.90;;;;;;4998783;28;20228;-69
2023/03/10 01:29:40;;;;;;;1.00;0.90;;;18.10;38.90;;;;;;4998742;28;20226;-69
2023/03/10 01:32:06;;;;;;;1.10;1.00;;;18.10;38.90;;;;;;4977972;28;20271;-69
2023/03/10 01:34:31;;;;;;;1.30;1.20;;;18.10;38.90;;;;;;4997551;28;20698;-69
2023/03/10 01:36:57;;;;;;;0.87;0.83;;;18.10;38.90;;;;;;4992002;28;20238;-69
2023/03/10 01:39:22;;;;;;;1.17;1.07;;;18.10;38.90;;;;;;4983827;28;20877;-69
2023/03/10 01:41:48;;;;;;;1.20;1.10;;;18.10;38.90;;;;;;4998248;28;20608;-69
2023/03/10 01:44:16;;;;;;;1.20;1.10;;;18.10;38.90;;;;;;4991138;28;20932;-69
2023/03/10 01:46:53;;;;;;;1.03;0.90;;;18.10;38.90;;;;;;4996523;28;20239;-69
2023/03/10 01:49:43;;;;;;;1.07;0.97;;;18.10;38.90;;;;;;4990861;28;20493;-69
2023/03/10 01:52:17;;;;;;;1.43;1.30;;;18.10;39.00;;;;;;4992441;28;20428;-69
2023/03/10 01:55:09;;;;;;;0.90;0.90;;;18.10;38.90;;;;;;4990474;28;20461;-69
2023/03/10 01:57:41;;;;;;;1.20;1.10;;;18.10;39.00;;;;;;4992171;28;20446;-69
2023/03/10 02:00:11;;;;;;;1.30;0.97;;;18.10;39.00;;;;;;4996821;28;20490;-69
2023/03/10 02:02:43;;;;;;;1.10;0.93;;;18.10;39.10;;;;;;5000963;28;20484;-69
2023/03/10 02:05:11;;;;;;;1.23;1.00;;;18.10;39.00;;;;;;4996192;28;20454;-69
2023/03/10 02:07:37;;;;;;;1.10;1.00;;;18.10;39.00;;;;;;5000598;28;20452;-69
2023/03/10 02:10:03;;;;;;;1.10;1.00;;;18.10;39.00;;;;;;4988294;28;20503;-69
2023/03/10 02:12:28;;;;;;;1.20;1.10;;;18.10;39.00;;;;;;5000819;28;20235;-69
2023/03/10 02:14:55;;;;;;;1.10;1.00;;;18.10;39.10;;;;;;4999247;28;20411;-69
2023/03/10 02:17:23;;;;;;;1.00;0.90;;;18.10;39.10;;;;;;4997931;28;20243;-69
2023/03/10 02:20:11;;;;;;;0.80;0.77;;;18.10;39.00;;;;;;4991247;28;20454;-69
2023/03/10 02:22:38;;;;;;;1.60;0.87;;;18.10;39.10;;;;;;4997472;28;20472;-69
2023/03/10 02:25:27;;;;;;;1.10;1.00;;;18.10;39.00;;;;;;4997549;28;21172;-69
2023/03/10 02:27:53;;;;;;;1.10;1.00;;;18.10;39.10;;;;;;4979754;28;21233;-69
2023/03/10 02:30:29;;;;;;;0.80;0.80;;;18.10;39.10;;;;;;4977929;28;20466;-69
2023/03/10 02:32:59;;;;;;;1.23;0.90;;;18.10;39.00;;;;;;4992561;28;20455;-69
2023/03/10 02:35:24;;;;;;;1.00;0.90;;;18.10;39.10;;;;;;4987548;28;20918;-69
2023/03/10 02:37:50;;;;;;;1.10;1.00;;;18.10;39.10;;;;;;4999702;28;20472;-69
2023/03/10 02:40:32;;;;;;;1.00;0.80;;;18.10;39.20;;;;;;4989152;28;20216;-69
2023/03/10 02:43:16;;;;;;;1.10;1.00;;;18.10;39.10;;;;;;4992636;28;20261;-69
2023/03/10 02:45:44;;;;;;;1.00;0.80;;;18.10;39.10;;;;;;4999450;28;20800;-69
2023/03/10 02:48:12;;;;;;;1.03;0.97;;;18.10;39.10;;;;;;4993985;28;20448;-69
2023/03/10 02:50:41;;;;;;;1.30;1.20;;;18.10;39.10;;;;;;4992029;28;20461;-69
2023/03/10 02:53:16;;;;;;;1.00;0.90;;;18.10;39.20;;;;;;4993888;28;20461;-69
2023/03/10 02:55:41;;;;;;;1.00;0.80;;;18.10;39.20;;;;;;4986093;28;20497;-68
2023/03/10 02:58:08;;;;;;;1.27;1.17;;;18.10;39.20;;;;;;4994076;28;20577;-68
2023/03/10 03:00:40;;;;;;;1.00;0.90;;;18.10;39.20;;;;;;4990189;28;21465;-69
2023/03/10 03:03:06;;;;;;;1.20;1.07;;;18.10;39.20;;;;;;4979264;28;20465;-69
2023/03/10 03:05:32;;;;;;;0.90;0.80;;;18.10;39.20;;;;;;4998042;28;20454;-69
2023/03/10 03:07:58;;;;;;;1.20;1.00;;;18.10;39.20;;;;;;4991822;28;21356;-69
2023/03/10 03:10:24;;;;;;;1.47;0.80;;;18.10;39.20;;;;;;4991868;28;20227;-69
2023/03/10 03:12:50;;;;;;;1.00;0.90;;;18.10;39.20;;;;;;4997689;28;20227;-69
2023/03/10 03:15:16;;;;;;;0.93;0.83;;;18.10;39.20;;;;;;4992527;28;20977;-68
2023/03/10 03:17:42;;;;;;;0.80;0.80;;;18.10;39.20;;;;;;4987223;28;20233;-69
2023/03/10 03:20:13;;;;;;;1.33;0.90;;;18.10;39.20;;;;;;4992762;28;20812;-69
2023/03/10 03:22:41;;;;;;;1.03;0.93;;;18.10;39.20;;;;;;4997199;28;20785;-69
2023/03/10 03:25:08;;;;;;;1.30;0.80;;;18.10;39.20;;;;;;4993160;28;20470;-69
2023/03/10 03:27:35;;;;;;;0.83;0.77;;;18.10;39.20;;;;;;4986128;28;20505;-69
2023/03/10 03:30:01;;;;;;;0.80;0.80;;;18.10;39.20;;;;;;4994238;28;20449;-69
2023/03/10 03:32:27;;;;;;;1.00;0.80;;;18.10;39.30;;;;;;4992141;28;20429;-69
2023/03/10 03:34:52;;;;;;;1.40;0.90;;;18.10;39.20;;;;;;4977205;28;20442;-69
2023/03/10 03:37:18;;;;;;;1.00;0.90;;;18.10;39.20;;;;;;4997944;28;20247;-69
2023/03/10 03:39:43;;;;;;;1.63;0.70;;;18.10;39.30;;;;;;4987712;28;20286;-69
2023/03/10 03:42:09;;;;;;;0.70;0.70;;;18.10;39.20;;;;;;4999411;28;20211;-69
2023/03/10 03:44:34;;;;;;;0.77;0.77;;;18.10;39.20;;;;;;4994116;28;20693;-69
2023/03/10 03:47:00;;;;;;;0.90;0.80;;;18.10;39.30;;;;;;4980305;28;20224;-69
2023/03/10 03:49:25;;;;;;;0.93;0.83;;;18.10;39.20;;;;;;4994218;28;20211;-69
2023/03/10 03:51:51;;;;;;;1.07;0.80;;;18.10;39.20;;;;;;5002449;28;20226;-69
2023/03/10 03:54:16;;;;;;;1.00;0.90;;;18.10;39.30;;;;;;5000099;28;20281;-69
2023/03/10 03:56:42;;;;;;;0.80;0.80;;;18.10;39.30;;;;;;4997994;28;20991;-69
2023/03/10 03:59:07;;;;;;;0.97;0.93;;;18.10;39.30;;;;;;4996949;28;20239;-69
2023/03/10 04:01:33;;;;;;;0.87;0.87;;;18.10;39.30;;;;;;5000043;28;20234;-69
2023/03/10 04:03:59;;;;;;;3.23;0.90;;;18.10;39.30;;;;;;4991010;28;20688;-70
2023/03/10 04:06:24;;;;;;;0.90;0.90;;;18.10;39.30;;;;;;4998474;28;20358;-70
2023/03/10 04:08:50;;;;;;;0.87;0.80;;;18.10;39.30;;;;;;5000637;28;20223;-70
2023/03/10 04:11:15;;;;;;;0.80;0.73;;;18.10;39.30;;;;;;4993407;28;20827;-70
2023/03/10 04:13:42;;;;;;;0.80;0.80;;;18.00;39.20;;;;;;5003519;28;20219;-70
2023/03/10 04:16:08;;;;;;;1.23;1.10;;;18.00;39.20;;;;;;4992147;28;20573;-70
2023/03/10 04:18:34;;;;;;;1.03;0.93;;;18.10;39.30;;;;;;4997334;28;20574;-70
2023/03/10 04:20:59;;;;;;;1.17;0.90;;;18.10;39.30;;;;;;4993588;28;21704;-70
2023/03/10 04:23:25;;;;;;;0.77;0.77;;;18.10;39.30;;;;;;4997005;28;20223;-71
2023/03/10 04:25:51;;;;;;;1.00;0.80;;;18.10;39.40;;;;;;4994714;28;20228;-71
2023/03/10 04:28:16;;;;;;;0.80;0.70;;;18.10;39.30;;;;;;4994152;28;20310;-71
2023/03/10 04:30:43;;;;;;;0.80;0.70;;;18.10;39.30;;;;;;4995015;28;20220;-71
2023/03/10 04:33:10;;;;;;;0.80;0.80;;;18.10;39.30;;;;;;5000353;28;20223;-70
2023/03/10 04:35:46;;;;;;;0.80;0.80;;;18.10;39.40;;;;;;4997106;28;20470;-71
2023/03/10 04:38:12;;;;;;;0.90;0.70;;;18.10;39.40;;;;;;4993780;28;20862;-70
2023/03/10 04:40:38;;;;;;;0.60;0.60;;;18.10;39.40;;;;;;5004765;28;20447;-71
2023/03/10 04:43:03;;;;;;;0.70;0.70;;;18.10;39.40;;;;;;4997105;28;20547;-71
2023/03/10 04:45:29;;;;;;;0.77;0.70;;;18.10;39.30;;;;;;5001587;28;20231;-70
2023/03/10 04:47:55;;;;;;;0.80;0.80;;;18.10;39.30;;;;;;4991559;28;20594;-70
2023/03/10 04:50:20;;;;;;;0.90;0.80;;;18.10;39.30;;;;;;5005879;28;20444;-70
2023/03/10 04:52:48;;;;;;;0.80;0.80;;;18.10;39.30;;;;;;4996427;28;20305;-70
2023/03/10 04:55:14;;;;;;;0.80;0.70;;;18.10;39.20;;;;;;5004969;28;20310;-70
2023/03/10 04:57:43;;;;;;;1.00;0.80;;;18.10;39.20;;;;;;5004685;28;20477;-70
2023/03/10 05:00:11;;;;;;;0.87;0.70;;;18.10;39.20;;;;;;5016933;28;20548;-70
2023/03/10 05:02:38;;;;;;;1.20;1.10;;;18.10;39.30;;;;;;4992373;28;20467;-68
2023/03/10 05:05:04;;;;;;;0.87;0.80;;;18.10;39.20;;;;;;4998111;28;20472;-67
2023/03/10 05:07:31;;;;;;;1.20;1.10;;;18.10;39.20;;;;;;4999015;28;20461;-68
2023/03/10 05:09:57;;;;;;;1.00;0.80;;;18.10;39.20;;;;;;5001599;28;20556;-68
2023/03/10 05:12:23;;;;;;;1.33;0.80;;;18.10;39.20;;;;;;5001402;28;20535;-68
2023/03/10 05:14:48;;;;;;;0.80;0.70;;;18.10;39.20;;;;;;4999927;28;20616;-68
2023/03/10 05:17:14;;;;;;;0.77;0.70;;;18.10;39.20;;;;;;5003797;28;20235;-68
2023/03/10 05:19:39;;;;;;;0.90;0.80;;;18.10;39.20;;;;;;5004845;28;20234;-68
2023/03/10 05:22:06;;;;;;;0.80;0.70;;;18.10;39.20;;;;;;4997454;28;20219;-69
2023/03/10 05:24:32;;;;;;;1.30;0.70;;;18.10;39.20;;;;;;4990319;28;22098;-68
2023/03/10 05:27:01;;;;;;;1.70;0.60;;;18.10;39.20;;;;;;4996268;28;20466;-68
2023/03/10 05:29:26;;;;;;;1.60;0.90;;;18.10;39.20;;;;;;4999164;28;20479;-68
2023/03/10 05:31:52;;;;;;;0.80;0.70;;;18.10;39.20;;;;;;4999355;28;20449;-67
2023/03/10 05:34:17;;;;;;;0.90;0.73;;;18.10;39.20;;;;;;4989578;28;20559;-69
2023/03/10 05:36:43;;;;;;;0.93;0.87;;;18.10;39.20;;;;;;4979455;28;23058;-69
2023/03/10 05:39:09;;;;;;;2.03;0.80;;;18.10;39.20;;;;;;4958435;28;20239;-69
2023/03/10 05:41:36;;;;;;;0.70;0.63;;;18.10;39.20;;;;;;4973743;28;20234;-69
2023/03/10 05:44:02;;;;;;;0.90;0.80;;;18.10;39.20;;;;;;4984471;28;20524;-69
2023/03/10 05:46:29;;;;;;;0.90;0.73;;;18.20;39.30;;;;;;4975075;28;20469;-69
2023/03/10 05:48:55;;;;;;;1.13;0.60;;;18.20;39.30;;;;;;4994625;28;20231;-69
2023/03/10 05:51:21;;;;;;;0.90;0.63;;;18.20;39.30;;;;;;4977065;28;20477;-69
2023/03/10 05:53:47;;;;;;;0.90;0.70;;;18.20;39.30;;;;;;4985488;28;20515;-69
2023/03/10 05:56:16;;;;;;;1.00;0.70;;;18.20;39.30;;;;;;4992589;28;20304;-68
2023/03/10 05:58:42;;;;;;;0.90;0.70;;;18.10;39.20;;;;;;4994222;28;20901;-69
2023/03/10 06:01:08;;;;;;;0.73;0.63;;;18.10;39.20;;;;;;4985239;28;20457;-68
2023/03/10 06:03:35;;;;;;;1.00;0.97;;;18.20;39.30;;;;;;4983079;28;20451;-69
2023/03/10 06:06:02;;;;;;;0.87;0.70;;;18.20;39.30;;;;;;4994880;28;20432;-69
2023/03/10 06:08:27;;;;;;;1.87;0.73;;;18.10;39.20;;;;;;4984460;28;20444;-68
2023/03/10 06:10:54;;;;;;;0.80;0.80;;;18.10;39.20;;;;;;4990374;28;20469;-68
2023/03/10 06:13:19;;;;;;;1.47;1.37;;;18.20;39.30;;;;;;4996877;28;20916;-69
2023/03/10 06:15:56;;;;;;;0.80;0.80;;;18.20;39.30;;;;;;4998546;28;20445;-68
2023/03/10 06:18:23;;;;;;;0.70;0.70;;;18.20;39.30;;;;;;4998187;28;20246;-68
2023/03/10 06:20:49;;;;;;;0.60;0.60;;;18.20;39.30;;;;;;4985276;28;20809;-68
2023/03/10 06:23:16;;;;;;;0.80;0.70;;;18.20;39.30;;;;;;4992908;28;20790;-70
2023/03/10 06:25:41;;;;;;;0.83;0.70;;;18.20;40.20;;;;;;4985942;28;20451;-68
2023/03/10 06:28:08;;;;;;;0.90;0.80;;;18.20;39.30;;;;;;4992035;28;20464;-68
2023/03/10 06:30:33;;;;;;;0.80;0.70;;;18.20;39.30;;;;;;4985633;28;20718;-71
2023/03/10 06:33:00;;;;;;;0.90;0.70;;;18.20;39.30;;;;;;4973882;28;20453;-77
2023/03/10 06:35:26;;;;;;;0.80;0.70;;;18.20;39.30;;;;;;4980247;28;20224;-72
2023/03/10 06:37:52;;;;;;;0.87;0.70;;;18.20;39.30;;;;;;4989806;28;20472;-68
2023/03/10 06:40:18;;;;;;;1.00;0.90;;;18.20;39.30;;;;;;4979872;28;20451;-71
2023/03/10 06:42:43;;;;;;;0.70;0.70;;;18.20;39.30;;;;;;4974473;28;20329;-69
2023/03/10 06:45:13;;;;;;;1.17;0.83;;;18.20;39.30;;;;;;4976566;28;20223;-71
2023/03/10 06:47:38;;;;;;;0.90;0.60;;;18.20;39.30;;;;;;4983342;28;20239;-70
2023/03/10 06:50:05;;;;;;;5.80;0.90;;;18.20;39.30;;;;;;4985941;28;20918;-72
2023/03/10 06:52:33;;;;;;;0.70;0.70;;;18.20;39.40;;;;;;4982390;28;20236;-69
2023/03/10 06:54:59;;;;;;;0.80;0.80;;;18.20;39.40;;;;;;4988401;28;21083;-71
2023/03/10 06:57:25;;;;;;;0.80;0.80;;;18.20;39.30;;;;;;4992339;28;20478;-69
2023/03/10 06:59:50;;;;;;;0.93;0.67;;;18.20;39.30;;;;;;4995346;28;20439;-71
2023/03/10 07:02:18;;;;;;;1.93;0.70;;;18.20;39.30;;;;;;4997320;28;20224;-69
2023/03/10 07:04:44;;;;;;;0.63;0.60;;;18.20;39.40;;;;;;4997404;28;20544;-69
2023/03/10 07:07:09;;;;;;;0.83;0.80;;;18.20;39.30;;;;;;4987279;28;20469;-69
2023/03/10 07:09:35;;;;;;;0.70;0.60;;;18.20;39.40;;;;;;4979049;28;20220;-69
2023/03/10 07:12:01;;;;;;;0.67;0.57;;;18.20;39.40;;;;;;4984144;28;20224;-69
2023/03/10 07:14:26;;;;;;;1.07;0.70;;;18.20;39.40;;;;;;4985294;28;20220;-71
2023/03/10 07:16:52;;;;;;;1.17;0.80;;;18.20;39.40;;;;;;4982675;28;20840;-69
2023/03/10 07:19:17;;;;;;;1.07;0.97;;;18.20;39.50;;;;;;4991441;28;20330;-70
2023/03/10 07:21:43;;;;;;;1.07;0.70;;;18.20;39.40;;;;;;4993554;28;20318;-69
2023/03/10 07:24:08;;;;;;;1.00;0.77;;;18.20;39.40;;;;;;4981202;28;20235;-77
2023/03/10 07:26:34;;;;;;;0.83;0.80;;;18.20;39.40;;;;;;4983752;28;20431;-77
2023/03/10 07:29:01;;;;;;;1.17;0.80;;;18.20;39.40;;;;;;4992661;28;20302;-78
2023/03/10 07:31:27;;;;;;;1.00;0.80;;;18.20;39.40;;;;;;4998150;28;20242;-79
2023/03/10 07:33:52;;;;;;;1.90;0.97;;;18.20;39.40;;;;;;4998154;28;20449;-79
2023/03/10 07:36:19;;;;;;;1.00;0.80;;;18.20;39.30;;;;;;4999118;28;20599;-77
2023/03/10 07:38:45;;;;;;;1.27;0.70;;;18.20;39.40;;;;;;4997492;28;20274;-79
2023/03/10 07:41:15;;;;;;;0.80;0.80;;;18.20;39.40;;;;;;4991773;28;20460;-77
2023/03/10 07:43:40;;;;;;;0.83;0.70;;;18.20;39.30;;;;;;4977626;28;20467;-76
2023/03/10 07:46:09;;;;;;;0.90;0.70;;;18.20;39.40;;;;;;4990007;28;20514;-79
2023/03/10 07:48:35;;;;;;;0.63;0.63;;;18.20;39.40;;;;;;4989978;28;20238;-80
2023/03/10 07:51:00;;;;;;;3.33;0.70;;;18.20;39.30;;;;;;4989948;28;21340;-78
2023/03/10 07:53:27;;;;;;;2.23;0.80;;;18.20;39.30;;;;;;4996375;28;20679;-80
2023/03/10 07:55:53;;;;;;;0.90;0.70;;;18.20;39.30;;;;;;4999816;28;20219;-79
2023/03/10 07:58:19;;;;;;;1.03;0.70;;;18.20;39.40;;;;;;4994205;28;20452;-78
2023/03/10 08:00:44;;;;;;;0.83;0.83;;;18.20;39.40;;;;;;4990340;28;20324;-80
2023/03/10 08:03:10;;;;;;;0.90;0.70;;;18.20;39.40;;;;;;4995660;28;20933;-81
2023/03/10 08:05:40;;;;;;;0.80;0.77;;;18.20;39.40;;;;;;5000285;28;20306;-80
2023/03/10 08:08:06;;;;;;;1.97;0.80;;;18.20;39.30;;;;;;5003775;28;20223;-78
2023/03/10 08:10:32;;;;;;;1.73;0.70;;;18.20;39.40;;;;;;5002426;28;20995;-77
2023/03/10 08:12:57;;;;;;;1.27;0.80;;;18.20;39.40;;;;;;4987847;28;20235;-79
2023/03/10 08:15:23;;;;;;;0.93;0.70;;;18.20;39.40;;;;;;5001375;28;20705;-81
2023/03/10 08:17:49;;;;;;;1.07;0.80;;;18.20;39.30;;;;;;4995095;28;20835;-80
2023/03/10 08:20:15;;;;;;;1.00;0.77;;;18.20;39.40;;;;;;5005225;28;20456;-80
2023/03/10 08:22:40;;;;;;;0.80;0.70;;;18.20;39.30;;;;;;5006973;28;20302;-76
2023/03/10 08:25:06;;;;;;;1.17;0.80;;;18.20;39.30;;;;;;5005830;28;20227;-80
2023/03/10 08:27:32;;;;;;;1.13;0.80;;;18.20;39.30;;;;;;5006235;28;20227;-78
2023/03/10 08:29:58;;;;;;;1.10;0.90;;;18.20;39.50;;;;;;5004561;28;20317;-80
2023/03/10 08:32:23;;;;;;;1.17;0.77;;;18.20;39.30;;;;;;5005130;28;20234;-80
2023/03/10 08:34:49;;;;;;;0.87;0.70;;;18.20;39.40;;;;;;5006096;28;20258;-80
2023/03/10 08:37:14;;;;;;;1.00;0.80;;;18.20;39.40;;;;;;5005587;28;20234;-80
2023/03/10 08:39:40;;;;;;;0.80;0.80;;;18.20;39.40;;;;;;5003136;28;20223;-75
2023/03/10 08:42:05;;;;;;;1.00;0.80;;;18.20;39.30;;;;;;5005053;28;21160;-77
2023/03/10 08:44:31;;;;;;;1.43;0.80;;;18.20;39.40;;;;;;5005405;28;20245;-77
2023/03/10 08:46:56;;;;;;;0.80;0.80;;;18.20;39.40;;;;;;5000973;28;20246;-70
2023/03/10 08:49:22;;;;;;;1.17;0.83;;;18.20;39.40;;;;;;4987367;28;20315;-75
2023/03/10 08:51:48;;;;;;;0.80;0.80;;;18.20;39.50;;;;;;4988597;28;20258;-70
2023/03/10 08:54:17;;;;;;;0.70;0.60;;;18.20;39.40;;;;;;4995980;28;20297;-74
2023/03/10 08:56:43;;;;;;;0.90;0.70;;;18.20;39.50;;;;;;4994061;28;20843;-71
2023/03/10 08:59:09;;;;;;;1.47;0.60;;;18.20;39.50;;;;;;4997592;28;20483;-71
2023/03/10 09:01:35;;;;;;;0.77;0.77;;;18.20;39.40;;;;;;5002504;28;20224;-71
2023/03/10 09:04:04;;;;;;;0.90;0.70;;;18.20;39.40;;;;;;4991041;28;20251;-72
2023/03/10 09:06:30;;;;;;;1.30;0.70;;;18.20;39.40;;;;;;5001296;28;20545;-72
2023/03/10 09:08:56;;;;;;;0.90;0.77;;;18.20;39.50;;;;;;4998445;28;20466;-73
2023/03/10 09:11:27;;;;;;;0.80;0.80;;;18.20;39.40;;;;;;4996975;28;20944;-71
2023/03/10 09:13:54;;;;;;;1.63;0.80;;;18.20;39.50;;;;;;4999036;28;20468;-73
2023/03/10 09:16:20;;;;;;;1.30;0.80;;;18.20;39.40;;;;;;4998996;28;20468;-73
2023/03/10 09:18:46;;;;;;;1.23;0.83;;;18.20;39.50;;;;;;5000301;28;20724;-72
2023/03/10 09:21:14;;;;;;;0.90;0.70;;;18.20;40.20;;;;;;4999182;28;20470;-76
2023/03/10 09:23:42;;;;;;;1.50;0.77;;;18.20;39.40;;;;;;4993451;28;20227;-73
2023/03/10 09:26:08;;;;;;;1.00;0.80;;;18.20;39.40;;;;;;4998506;28;20468;-72
2023/03/10 09:28:33;;;;;;;1.27;0.73;;;18.30;39.50;;;;;;5002519;28;20461;-72
2023/03/10 09:30:59;;;;;;;1.03;0.70;;;18.20;39.40;;;;;;5002933;28;20289;-73
2023/03/10 09:33:24;;;;;;;1.37;0.70;;;18.20;40.00;;;;;;4999337;28;20223;-72
2023/03/10 09:35:50;;;;;;;1.00;0.80;;;18.30;39.50;;;;;;4999844;28;20230;-72
2023/03/10 09:38:16;;;;;;;1.10;1.00;;;18.30;39.50;;;;;;4998130;28;20266;-73
2023/03/10 09:40:45;;;;;;;0.80;0.70;;;18.30;39.40;;;;;;4996480;28;20230;-72
2023/03/10 09:43:16;;;;;;;0.90;0.70;;;18.30;39.50;;;;;;4989952;28;20223;-73
2023/03/10 09:45:59;;;;;;;0.80;0.70;;;18.30;39.50;;;;;;4987931;28;20453;-73
2023/03/10 09:48:56;;;;;;;0.80;0.70;;;18.30;39.40;;;;;;4998983;28;20467;-73
2023/03/10 09:51:26;;;;;;;1.20;0.90;;;18.30;39.60;;;;;;5001813;28;20443;-72
2023/03/10 09:54:13;;;;;;;0.80;0.63;;;18.30;39.50;;;;;;4999347;28;20461;-72
2023/03/10 09:56:39;;;;;;;0.90;0.80;;;18.30;39.50;;;;;;4980020;28;20783;-80
2023/03/10 09:59:16;;;;;;;0.70;0.60;;;18.30;39.50;;;;;;4989969;28;20460;-77
2023/03/10 10:01:46;;;;;;;1.00;0.80;;;18.30;39.50;;;;;;4960664;28;20224;-79
2023/03/10 10:04:20;;;;;;;1.00;0.90;;;18.30;39.50;;;;;;4990017;28;20523;-79
2023/03/10 10:06:47;;;;;;;0.90;0.70;;;18.30;39.60;;;;;;4980985;28;20455;-72
2023/03/10 10:09:19;;;;;;;1.87;0.80;;;18.30;39.50;;;;;;4988588;28;20443;-77
2023/03/10 10:11:44;;;;;;;0.90;0.80;;;18.30;39.50;;;;;;4993969;28;20433;-77
2023/03/10 10:14:15;;;;;;;0.67;0.60;;;18.30;39.50;;;;;;4994653;28;21045;-78
2023/03/10 10:17:20;;;;;;;0.83;0.70;;;18.30;39.50;;;;;;4995120;28;20223;-76
2023/03/10 10:19:47;;;;;;;1.20;0.60;;;18.30;39.50;;;;;;4968230;28;20819;-79
2023/03/10 10:22:15;;;;;;;1.57;0.90;;;18.30;39.50;;;;;;4992099;28;21017;-79
2023/03/10 10:24:59;;;;;;;1.10;0.90;;;18.30;39.60;;;;;;4990713;28;20478;-79
2023/03/10 10:27:24;;;;;;;1.07;0.80;;;18.30;39.60;;;;;;4993347;28;20898;-79
2023/03/10 10:29:50;;;;;;;0.90;0.70;;;18.30;39.50;;;;;;4988325;28;20450;-79
2023/03/10 10:32:17;;;;;;;1.00;0.70;;;18.30;39.60;;;;;;5004668;28;20223;-79
2023/03/10 10:34:46;;;;;;;0.83;0.77;;;18.30;39.60;;;;;;4988281;28;20307;-79
2023/03/10 10:37:27;;;;;;;0.90;0.70;;;18.30;39.50;;;;;;4997533;28;20426;-76
2023/03/10 10:39:54;;;;;;;1.13;0.90;;;18.30;39.50;;;;;;4998448;28;20423;-76
2023/03/10 10:42:31;;;;;;;0.90;0.70;;;18.30;39.50;;;;;;5002398;28;20944;-76
2023/03/10 10:45:22;;;;;;;0.70;0.63;;;18.30;39.50;;;;;;4999176;28;20467;-76
2023/03/10 10:47:49;;;;;;;1.13;0.90;;;18.30;39.50;;;;;;4996868;28;20980;-76
2023/03/10 10:50:17;;;;;;;0.70;0.60;;;18.30;39.50;;;;;;4994551;28;20444;-78
2023/03/10 10:52:47;;;;;;;0.90;0.80;;;18.30;39.60;;;;;;5003509;28;20960;-72
2023/03/10 10:55:26;;;;;;;2.70;0.70;;;18.30;39.50;;;;;;5001293;28;20423;-70
2023/03/10 10:57:58;;;;;;;1.33;0.70;;;18.30;39.50;;;;;;4985350;28;20979;-70
2023/03/10 11:00:26;;;;;;;0.70;0.60;;;18.30;39.50;;;;;;4994865;28;20423;-71
2023/03/10 11:02:53;;;;;;;0.90;0.80;;;18.30;39.60;;;;;;4987802;28;20453;-70
2023/03/10 11:05:35;;;;;;;2.93;0.70;;;18.30;39.50;;;;;;4992997;28;20477;-71
2023/03/10 11:08:27;;;;;;;0.90;0.80;;;18.30;39.50;;;;;;4992514;28;20966;-77
2023/03/10 11:10:58;;;;;;;0.70;0.60;;;18.30;39.50;;;;;;4985896;28;20788;-72
2023/03/10 11:13:47;;;;;;;1.73;0.83;;;18.30;39.50;;;;;;4982583;28;20487;-70
2023/03/10 11:16:25;;;;;;;1.30;0.60;;;18.30;39.50;;;;;;4992494;28;20477;-70
2023/03/10 11:19:22;;;;;;;0.90;0.70;;;18.30;39.50;;;;;;4987249;28;20560;-79
2023/03/10 11:21:53;;;;;;;0.90;0.70;;;18.30;39.50;;;;;;4980366;28;20439;-72
2023/03/10 11:24:43;;;;;;;1.00;0.60;;;18.30;39.50;;;;;;4989563;28;20456;-68
2023/03/10 11:27:26;;;;;;;1.50;0.80;;;18.30;39.50;;;;;;4988723;28;20953;-74
2023/03/10 11:30:11;;;;;;;0.70;0.70;;;18.30;39.50;;;;;;4975859;28;20444;-71
2023/03/10 11:33:03;;;;;;;0.93;0.83;;;18.30;39.50;;;;;;4981216;28;20470;-78
2023/03/10 11:35:36;;;;;;;0.70;0.60;;;18.30;39.60;;;;;;4991255;28;20501;-71
2023/03/10 11:38:27;;;;;;;2.43;1.37;;;18.30;40.50;;;;;;4990516;28;20468;-78
2023/03/10 11:40:57;;;;;;;0.90;0.80;;;18.30;39.50;;;;;;4995703;28;20447;-73
2023/03/10 11:43:30;;;;;;;1.20;0.80;;;18.30;39.60;;;;;;4991295;28;20515;-71
2023/03/10 11:46:09;;;;;;;0.90;0.80;;;18.30;39.50;;;;;;4974484;28;21027;-71
2023/03/10 11:49:04;;;;;;;1.73;1.13;;;18.30;39.60;;;;;;4987284;28;20898;-71
2023/03/10 11:51:42;;;;;;;1.00;0.80;;;18.30;39.60;;;;;;4987719;28;20456;-74
2023/03/10 11:54:18;;;;;;;0.83;0.60;;;18.30;39.60;;;;;;4997933;28;20411;-72
2023/03/10 11:56:44;;;;;;;0.80;0.70;;;18.30;39.60;;;;;;4987493;28;20551;-74
2023/03/10 11:59:31;;;;;;;0.90;0.77;;;18.30;39.60;;;;;;4993373;28;20808;-78
2023/03/10 12:02:20;;;;;;;0.77;0.70;;;18.30;39.60;;;;;;4990750;28;20435;-82
2023/03/10 12:05:05;;;;;;;1.03;0.50;;;18.30;39.60;;;;;;4995521;28;20453;-82
2023/03/10 12:07:42;;;;;;;1.00;0.70;;;18.30;39.60;;;;;;4991198;28;20510;-79
2023/03/10 12:10:11;;;;;;;0.70;0.60;;;18.30;39.70;;;;;;4995011;28;20457;-80
2023/03/10 12:12:40;;;;;;;0.87;0.80;;;18.30;39.70;;;;;;4988185;28;20483;-80
2023/03/10 12:15:31;;;;;;;1.00;0.70;;;18.20;39.50;;;;;;4995769;28;20439;-82
2023/03/10 12:17:57;;;;;;;1.10;0.73;;;18.30;39.60;;;;;;4993018;28;20603;-78
2023/03/10 12:20:29;;;;;;;2.33;0.90;;;18.30;39.60;;;;;;5001632;28;20527;-79
2023/03/10 12:22:56;;;;;;;1.07;0.60;;;18.30;39.60;;;;;;4995008;28;20295;-79
2023/03/10 12:25:28;;;;;;;1.87;0.73;;;18.30;39.70;;;;;;4993884;28;20436;-79
2023/03/10 12:28:15;;;;;;;0.80;0.70;;;18.30;39.60;;;;;;4981357;28;20467;-79
2023/03/10 12:31:30;;;;;;;2.20;0.70;;;18.30;39.60;;;;;;4994554;28;20427;-78
2023/03/10 12:34:13;;;;;;;0.70;0.50;;;18.30;39.70;;;;;;4988336;28;20870;-77
2023/03/10 12:36:42;;;;;;;1.83;1.10;;;18.30;39.70;;;;;;4997192;28;20464;-78
2023/03/10 12:39:26;;;;;;;0.90;0.70;;;18.30;39.70;;;;;;4991171;28;20452;-78
2023/03/10 12:41:52;;;;;;;0.83;0.73;;;18.30;39.70;;;;;;4993039;28;20465;-78
2023/03/10 12:44:21;;;;;;;1.03;0.93;;;18.30;39.70;;;;;;4988552;28;20466;-78
2023/03/10 12:46:53;;;;;;;0.73;0.70;;;18.30;39.70;;;;;;4985889;28;20531;-76
2023/03/10 12:49:42;;;;;;;0.80;0.70;;;18.30;39.70;;;;;;4991729;28;20451;-79
2023/03/10 12:52:29;;;;;;;0.80;0.60;;;18.30;39.60;;;;;;5013104;28;20538;-78
2023/03/10 12:55:16;;;;;;;0.70;0.60;;;18.30;39.70;;;;;;4991785;28;20452;-76
2023/03/10 12:58:12;;;;;;;0.90;0.70;;;18.20;39.60;;;;;;4987151;28;20547;-81
2023/03/10 13:00:59;;;;;;;0.70;0.57;;;18.30;39.70;;;;;;4988991;28;20511;-75